createdAt,value
2023-09-25T00:00:45.194Z,1.42
2023-09-25T00:03:14.322Z,1.67
2023-09-25T00:05:44.496Z,1.70
2023-09-25T00:08:13.005Z,1.50
2023-09-25T00:10:42.916Z,1.60
2023-09-25T00:13:11.546Z,1.50
2023-09-25T00:15:45.295Z,1.55
2023-09-25T00:18:15.918Z,1.38
2023-09-25T00:20:45.900Z,1.63
2023-09-25T00:23:14.467Z,1.75
2023-09-25T00:25:43.132Z,1.60
2023-09-25T00:28:11.979Z,1.33
2023-09-25T00:30:41.813Z,1.20
2023-09-25T00:33:10.723Z,1.52
2023-09-25T00:35:42.402Z,1.60
2023-09-25T00:38:12.282Z,1.80
2023-09-25T00:40:42.693Z,1.75
2023-09-25T00:43:13.764Z,1.40
2023-09-25T00:45:44.109Z,1.70
2023-09-25T00:48:27.250Z,1.15
2023-09-25T00:50:57.710Z,1.50
2023-09-25T00:53:30.777Z,1.40
2023-09-25T00:55:59.465Z,1.60
2023-09-25T00:58:28.268Z,1.30
2023-09-25T01:00:57.950Z,1.95
2023-09-25T01:03:27.044Z,1.45
2023-09-25T01:05:55.700Z,1.23
2023-09-25T01:08:24.466Z,1.63
2023-09-25T01:10:54.360Z,1.50
2023-09-25T01:13:22.887Z,1.40
2023-09-25T01:15:51.488Z,1.55
2023-09-25T01:18:20.118Z,1.40
2023-09-25T01:20:50.701Z,1.42
2023-09-25T01:23:20.596Z,1.50
2023-09-25T01:25:49.148Z,1.48
2023-09-25T01:28:17.985Z,1.45
2023-09-25T01:30:47.063Z,1.80
2023-09-25T01:33:15.813Z,1.48
2023-09-25T01:35:44.421Z,1.52
2023-09-25T01:38:13.352Z,1.60
2023-09-25T01:40:43.272Z,1.30
2023-09-25T01:43:11.816Z,1.60
2023-09-25T01:45:40.454Z,1.45
2023-09-25T01:48:09.407Z,1.52
2023-09-25T01:50:39.166Z,1.60
2023-09-25T01:53:07.860Z,1.50
2023-09-25T01:55:37.595Z,1.30
2023-09-25T01:58:08.250Z,1.25
2023-09-25T02:00:37.458Z,1.50
2023-09-25T02:03:07.395Z,1.38
2023-09-25T02:05:36.587Z,1.30
2023-09-25T02:08:05.793Z,1.30
2023-09-25T02:10:37.381Z,1.75
2023-09-25T02:13:07.650Z,1.50
2023-09-25T02:15:36.382Z,1.20
2023-09-25T02:18:06.247Z,1.40
2023-09-25T02:20:35.785Z,1.30
2023-09-25T02:23:04.590Z,1.65
2023-09-25T02:25:33.195Z,1.60
2023-09-25T02:28:01.848Z,1.58
2023-09-25T02:30:32.309Z,1.63
2023-09-25T02:33:01.358Z,1.42
2023-09-25T02:35:30.000Z,1.67
2023-09-25T02:37:58.562Z,1.92
2023-09-25T02:40:27.158Z,1.60
2023-09-25T02:42:55.716Z,1.40
2023-09-25T02:45:24.380Z,1.40
2023-09-25T02:47:54.290Z,1.40
2023-09-25T02:50:22.997Z,1.42
2023-09-25T02:52:51.545Z,1.55
2023-09-25T02:55:20.288Z,1.85
2023-09-25T02:57:48.892Z,1.30
2023-09-25T03:00:18.174Z,1.20
2023-09-25T03:02:46.868Z,1.85
2023-09-25T03:05:17.460Z,1.20
2023-09-25T03:07:46.229Z,1.67
2023-09-25T03:10:14.788Z,1.60
2023-09-25T03:12:43.757Z,1.30
2023-09-25T03:15:12.947Z,1.77
2023-09-25T03:17:42.013Z,1.52
2023-09-25T03:20:15.679Z,1.85
2023-09-25T03:22:47.059Z,1.70
2023-09-25T03:25:18.928Z,1.40
2023-09-25T03:27:47.753Z,1.67
2023-09-25T03:30:16.708Z,1.40
2023-09-25T03:32:46.026Z,2.08
2023-09-25T03:35:16.409Z,1.60
2023-09-25T03:37:47.844Z,1.83
2023-09-25T03:40:16.547Z,1.67
2023-09-25T03:42:45.239Z,1.80
2023-09-25T03:45:14.377Z,1.50
2023-09-25T03:47:44.119Z,2.13
2023-09-25T03:50:13.203Z,1.85
2023-09-25T03:52:42.055Z,1.50
2023-09-25T03:55:12.253Z,1.85
2023-09-25T03:57:40.931Z,1.67
2023-09-25T04:00:10.448Z,1.60
2023-09-25T04:02:41.584Z,1.58
2023-09-25T04:05:11.209Z,1.67
2023-09-25T04:07:40.008Z,1.80
2023-09-25T04:10:09.554Z,1.50
2023-09-25T04:12:40.078Z,1.60
2023-09-25T04:15:13.592Z,1.67
2023-09-25T04:17:43.122Z,1.38
2023-09-25T04:20:19.088Z,1.67
2023-09-25T04:22:48.473Z,1.50
2023-09-25T04:25:20.023Z,1.60
2023-09-25T04:27:52.460Z,1.25
2023-09-25T04:30:22.642Z,1.60
2023-09-25T04:32:55.118Z,1.75
2023-09-25T04:35:24.928Z,1.50
2023-09-25T04:37:55.036Z,1.88
2023-09-25T04:40:25.291Z,2.00
2023-09-25T04:42:55.416Z,1.80
2023-09-25T04:45:24.403Z,1.55
2023-09-25T04:47:54.179Z,1.70
2023-09-25T04:50:24.479Z,1.52
2023-09-25T04:52:53.175Z,1.60
2023-09-25T04:55:22.207Z,1.63
2023-09-25T04:57:51.103Z,1.83
2023-09-25T05:00:22.923Z,2.20
2023-09-25T05:02:52.420Z,2.42
2023-09-25T05:05:21.075Z,2.08
2023-09-25T05:07:50.972Z,2.17
2023-09-25T05:10:23.121Z,2.20
2023-09-25T05:12:52.284Z,2.13
2023-09-25T05:15:23.034Z,2.20
2023-09-25T05:17:52.559Z,1.77
2023-09-25T05:20:23.834Z,2.00
2023-09-25T05:22:55.397Z,1.90
2023-09-25T05:25:24.865Z,2.38
2023-09-25T05:27:58.131Z,2.60
2023-09-25T05:30:28.197Z,2.38
2023-09-25T05:32:56.857Z,2.55
2023-09-25T05:35:25.656Z,2.33
2023-09-25T05:37:54.295Z,2.40
2023-09-25T05:40:22.807Z,2.90
2023-09-25T05:42:52.173Z,2.92
2023-09-25T05:45:22.839Z,2.80
2023-09-25T05:47:53.158Z,2.70
2023-09-25T05:50:21.871Z,2.70
2023-09-25T05:52:51.392Z,2.38
2023-09-25T05:55:20.031Z,2.60
2023-09-25T05:57:48.760Z,2.30
2023-09-25T06:00:19.672Z,2.50
2023-09-25T06:02:48.729Z,3.08
2023-09-25T06:05:19.228Z,2.60
2023-09-25T06:07:47.946Z,2.97
2023-09-25T06:10:19.127Z,2.90
2023-09-25T06:12:47.408Z,3.05
2023-09-25T06:15:16.221Z,2.67
2023-09-25T06:17:45.056Z,2.78
2023-09-25T06:20:18.415Z,2.72
2023-09-25T06:22:48.956Z,2.85
2023-09-25T06:25:19.046Z,2.70
2023-09-25T06:27:49.441Z,2.90
2023-09-25T06:30:21.145Z,2.92
2023-09-25T06:32:50.959Z,3.10
2023-09-25T06:35:19.957Z,2.72
2023-09-25T06:37:50.057Z,3.20
2023-09-25T06:40:20.345Z,2.70
2023-09-25T06:42:48.971Z,2.80
2023-09-25T06:45:17.888Z,2.60
2023-09-25T06:47:48.354Z,2.50
2023-09-25T06:50:17.536Z,2.40
2023-09-25T06:52:46.148Z,2.10
2023-09-25T06:55:16.241Z,2.40
2023-09-25T06:57:44.915Z,2.22
2023-09-25T07:00:15.133Z,2.97
2023-09-25T07:02:44.533Z,1.95
2023-09-25T07:05:15.245Z,2.17
2023-09-25T07:07:44.282Z,2.13
2023-09-25T07:10:13.882Z,1.90
2023-09-25T07:12:44.078Z,2.15
2023-09-25T07:15:13.407Z,2.00
2023-09-25T07:17:42.606Z,2.30
2023-09-25T07:20:12.246Z,2.00
2023-09-25T07:22:40.847Z,1.77
2023-09-25T07:25:10.085Z,1.90
2023-09-25T07:27:38.906Z,1.77
2023-09-25T07:30:11.788Z,1.50
2023-09-25T07:32:41.921Z,1.80
2023-09-25T07:35:12.326Z,1.30
2023-09-25T07:37:42.727Z,1.70
2023-09-25T07:40:15.781Z,1.80
2023-09-25T07:42:45.026Z,1.67
2023-09-25T07:45:23.462Z,1.83
2023-09-25T07:47:53.532Z,1.65
2023-09-25T07:50:25.958Z,1.92
2023-09-25T07:52:56.058Z,2.00
2023-09-25T07:55:25.192Z,1.90
2023-09-25T07:57:54.539Z,1.60
2023-09-25T08:00:25.987Z,1.40
2023-09-25T08:02:55.527Z,1.50
2023-09-25T08:05:24.977Z,1.58
2023-09-25T08:07:56.740Z,1.60
2023-09-25T08:10:25.673Z,1.63
2023-09-25T08:12:54.478Z,1.90
2023-09-25T08:15:25.069Z,1.63
2023-09-25T08:17:53.858Z,1.50
2023-09-25T08:20:23.427Z,1.48
2023-09-25T08:22:52.817Z,1.58
2023-09-25T08:25:22.166Z,1.55
2023-09-25T08:27:52.519Z,1.83
2023-09-25T08:30:22.213Z,1.58
2023-09-25T08:32:52.493Z,1.70
2023-09-25T08:35:21.361Z,1.58
2023-09-25T08:37:50.331Z,1.88
2023-09-25T08:40:19.016Z,1.60
2023-09-25T08:45:18.842Z,1.95
2023-09-25T08:47:47.681Z,1.73
2023-09-25T08:50:18.598Z,1.60
2023-09-25T08:52:47.805Z,1.55
2023-09-25T08:55:16.547Z,1.60
2023-09-25T08:57:46.560Z,1.80
2023-09-25T09:00:16.519Z,1.70
2023-09-25T09:02:45.767Z,1.92
2023-09-25T09:05:15.705Z,2.10
2023-09-25T09:07:59.236Z,1.52
2023-09-25T09:10:32.135Z,1.70
2023-09-25T09:13:03.634Z,2.00
2023-09-25T09:15:34.053Z,1.73
2023-09-25T09:18:19.559Z,1.67
2023-09-25T09:20:49.717Z,2.72
2023-09-25T09:23:20.011Z,2.67
2023-09-25T09:25:49.458Z,2.22
2023-09-25T09:28:18.012Z,2.00
2023-09-25T09:30:46.755Z,1.88
2023-09-25T09:33:15.338Z,2.20
2023-09-25T09:35:44.517Z,2.17
2023-09-25T09:38:15.238Z,1.60
2023-09-25T09:40:45.182Z,1.55
2023-09-25T09:43:14.003Z,1.60
2023-09-25T09:45:44.415Z,1.20
2023-09-25T09:48:15.188Z,1.60
2023-09-25T09:50:49.618Z,1.38
2023-09-25T09:53:19.346Z,1.73
2023-09-25T09:55:50.047Z,1.80
2023-09-25T09:58:18.826Z,1.40
2023-09-25T10:00:47.665Z,1.60
2023-09-25T10:03:16.951Z,1.80
2023-09-25T10:20:38.165Z,1.52
2023-09-25T10:23:12.337Z,1.80
2023-09-25T10:25:49.387Z,1.50
2023-09-25T10:28:19.859Z,1.40
2023-09-25T10:30:50.331Z,1.90
2023-09-25T10:33:19.883Z,1.95
2023-09-25T10:35:55.229Z,1.40
2023-09-25T10:38:31.630Z,2.13
2023-09-25T10:45:56.843Z,1.75
2023-09-25T10:58:07.317Z,1.40
2023-09-25T11:00:37.937Z,1.80
2023-09-25T11:03:07.939Z,1.48
2023-09-25T11:05:38.661Z,1.45
2023-09-25T11:08:10.380Z,1.50
2023-09-25T11:10:39.751Z,1.50
2023-09-25T11:13:09.956Z,1.45
2023-09-25T11:15:39.699Z,1.75
2023-09-25T11:18:10.121Z,1.65
2023-09-25T11:20:40.013Z,1.67
2023-09-25T11:25:43.295Z,1.50
2023-09-25T11:28:16.050Z,1.92
2023-09-25T11:30:47.869Z,1.65
2023-09-25T11:33:19.962Z,1.60
2023-09-25T11:35:50.990Z,1.70
2023-09-25T11:38:24.665Z,1.45
2023-09-25T11:40:53.819Z,1.65
2023-09-25T11:43:25.303Z,1.45
2023-09-25T11:45:54.691Z,1.60
2023-09-25T11:48:23.945Z,1.55
2023-09-25T11:50:52.878Z,1.70
2023-09-25T11:53:22.515Z,1.75
2023-09-25T11:55:51.135Z,1.63
2023-09-25T11:58:19.820Z,1.30
2023-09-25T12:00:49.613Z,1.60
2023-09-25T12:03:18.233Z,1.60
2023-09-25T12:05:46.919Z,1.70
2023-09-25T12:08:17.553Z,1.80
2023-09-25T12:10:46.208Z,1.85
2023-09-25T12:13:16.654Z,1.52
2023-09-25T12:15:46.227Z,1.77
2023-09-25T12:18:16.226Z,1.60
2023-09-25T12:20:44.827Z,1.80
2023-09-25T12:23:13.441Z,1.60
2023-09-25T12:25:41.901Z,1.75
2023-09-25T12:28:10.378Z,1.33
2023-09-25T12:30:39.020Z,1.52
2023-09-25T12:33:09.205Z,1.23
2023-09-25T12:35:42.409Z,1.67
2023-09-25T12:38:11.287Z,1.60
2023-09-25T12:40:39.765Z,1.50
2023-09-25T12:43:08.287Z,1.38
2023-09-25T12:45:36.911Z,1.20
2023-09-25T12:48:06.455Z,1.20
2023-09-25T12:50:35.063Z,1.63
2023-09-25T12:53:05.168Z,1.50
2023-09-25T12:55:34.814Z,1.40
2023-09-25T12:58:05.393Z,1.67
2023-09-25T13:00:34.024Z,1.58
2023-09-25T13:03:03.950Z,1.67
2023-09-25T13:05:34.455Z,2.00
2023-09-25T13:08:04.761Z,1.55
2023-09-25T13:10:33.462Z,1.75
2023-09-25T13:13:01.950Z,1.50
2023-09-25T13:15:30.609Z,1.55
2023-09-25T13:17:59.409Z,1.55
2023-09-25T13:20:27.970Z,1.70
2023-09-25T13:22:56.433Z,1.67
2023-09-25T13:25:26.366Z,1.50
2023-09-25T13:27:58.007Z,1.52
2023-09-25T13:30:26.633Z,1.40
2023-09-25T13:32:55.109Z,1.42
2023-09-25T13:35:24.602Z,1.40
2023-09-25T13:37:53.161Z,1.52
2023-09-25T13:40:22.333Z,1.52
2023-09-25T13:42:52.588Z,1.30
2023-09-25T13:45:21.101Z,1.60
2023-09-25T13:47:49.873Z,1.20
2023-09-25T13:50:18.480Z,1.50
2023-09-25T13:52:48.619Z,1.55
2023-09-25T13:55:17.126Z,1.42
2023-09-25T13:57:45.992Z,1.63
2023-09-25T14:00:16.399Z,1.60
2023-09-25T14:02:45.217Z,1.52
2023-09-25T14:05:14.113Z,1.65
2023-09-25T14:07:43.061Z,1.60
2023-09-25T14:10:16.577Z,1.63
2023-09-25T14:12:47.647Z,1.63
2023-09-25T14:15:18.036Z,1.40
2023-09-25T14:17:46.978Z,1.80
2023-09-25T14:20:15.767Z,1.30
2023-09-25T14:22:44.259Z,1.55
2023-09-25T14:25:12.910Z,1.45
2023-09-25T14:27:41.791Z,1.90
2023-09-25T14:30:13.719Z,1.60
2023-09-25T14:32:44.081Z,1.52
2023-09-25T14:35:12.960Z,1.10
2023-09-25T14:37:42.209Z,1.25
2023-09-25T14:40:11.564Z,1.63
2023-09-25T14:42:40.133Z,1.63
2023-09-25T14:45:09.569Z,1.63
2023-09-25T14:47:38.070Z,1.60
2023-09-25T14:50:10.127Z,1.80
2023-09-25T14:52:39.580Z,1.83
2023-09-25T14:55:08.767Z,1.42
2023-09-25T14:57:38.783Z,1.45
2023-09-25T15:00:10.489Z,1.42
2023-09-25T15:02:39.428Z,1.30
2023-09-25T15:05:10.148Z,1.60
2023-09-25T15:07:38.718Z,1.40
2023-09-25T15:10:08.532Z,1.40
2023-09-25T15:12:37.238Z,1.30
2023-09-25T15:15:06.595Z,1.48
2023-09-25T15:17:35.098Z,1.60
2023-09-25T15:20:06.692Z,1.50
2023-09-25T15:22:36.645Z,1.63
2023-09-25T15:25:05.618Z,1.58
2023-09-25T15:27:34.292Z,1.50
2023-09-25T15:30:02.893Z,1.60
2023-09-25T15:32:31.368Z,1.60
2023-09-25T15:34:59.910Z,1.30
2023-09-25T15:37:31.040Z,1.60
2023-09-25T15:40:01.005Z,1.35
2023-09-25T15:42:29.691Z,1.60
2023-09-25T15:44:58.547Z,2.25
2023-09-25T15:47:27.359Z,1.45
2023-09-25T15:49:55.860Z,1.45
2023-09-25T15:52:24.346Z,1.70
2023-09-25T15:54:52.941Z,1.42
2023-09-25T15:57:22.825Z,1.67
2023-09-25T15:59:52.236Z,1.48
2023-09-25T16:02:39.268Z,1.40
2023-09-25T16:05:26.212Z,1.60
2023-09-25T16:08:13.279Z,1.42
2023-09-25T16:11:00.082Z,1.48
2023-09-25T16:13:48.649Z,1.70
2023-09-25T16:16:36.222Z,2.55
2023-09-25T16:19:23.260Z,2.10
2023-09-25T16:22:10.195Z,1.77
2023-09-25T16:24:57.364Z,1.52
2023-09-25T16:27:44.775Z,1.63
2023-09-25T16:30:33.051Z,1.70
2023-09-25T16:33:19.967Z,1.27
2023-09-25T16:36:07.572Z,1.88
2023-09-25T16:38:54.552Z,1.50
2023-09-25T16:41:41.928Z,1.50
2023-09-25T16:44:28.896Z,1.55
2023-09-25T16:47:17.093Z,1.70
2023-09-25T16:50:05.409Z,1.38
2023-09-25T16:52:52.619Z,1.80
2023-09-25T16:55:48.088Z,1.40
2023-09-25T16:58:35.710Z,2.10
2023-09-25T17:01:23.029Z,3.22
2023-09-25T17:04:11.690Z,2.47
2023-09-25T17:06:58.680Z,2.13
2023-09-25T17:09:46.456Z,1.60
2023-09-25T17:12:33.966Z,1.70
2023-09-25T17:15:21.510Z,1.80
2023-09-25T17:18:13.066Z,1.42
2023-09-25T17:21:01.897Z,1.67
2023-09-25T17:23:48.969Z,2.88
2023-09-25T17:26:36.160Z,1.70
2023-09-25T17:29:23.002Z,1.90
2023-09-25T17:32:10.250Z,2.08
2023-09-25T17:34:57.416Z,2.03
2023-09-25T17:37:45.707Z,1.90
2023-09-25T17:40:32.884Z,1.75
2023-09-25T17:43:20.160Z,1.52
2023-09-25T17:46:09.241Z,1.80
2023-09-25T17:48:59.089Z,1.88
2023-09-25T17:51:46.273Z,2.00
2023-09-25T17:54:35.072Z,1.45
2023-09-25T17:57:22.280Z,1.45
2023-09-25T18:00:10.219Z,1.30
2023-09-25T18:02:57.032Z,2.25
2023-09-25T18:05:43.969Z,2.20
2023-09-25T18:08:30.849Z,1.83
2023-09-25T18:11:19.181Z,2.03
2023-09-25T18:14:08.516Z,1.90
2023-09-25T18:16:55.785Z,1.70
2023-09-25T18:19:42.661Z,1.85
2023-09-25T18:22:29.525Z,1.80
2023-09-25T18:25:17.310Z,1.70
2023-09-25T18:28:06.305Z,1.73
2023-09-25T18:30:54.485Z,1.92
2023-09-25T18:33:41.535Z,1.70
2023-09-25T18:36:28.348Z,2.35
2023-09-25T18:39:15.467Z,2.30
2023-09-25T18:41:44.192Z,2.10
2023-09-25T18:44:32.740Z,1.90
2023-09-25T18:47:01.332Z,1.60
2023-09-25T18:49:30.001Z,1.98
2023-09-25T18:51:58.637Z,1.88
2023-09-25T18:54:27.241Z,1.67
2023-09-25T18:56:55.744Z,1.85
2023-09-25T18:59:24.284Z,1.80
2023-09-25T19:01:54.665Z,2.33
2023-09-25T19:04:23.152Z,2.30
2023-09-25T19:06:51.636Z,2.22
2023-09-25T19:09:20.486Z,2.50
2023-09-25T19:11:49.060Z,2.05
2023-09-25T19:14:17.661Z,2.03
2023-09-25T19:16:46.279Z,1.92
2023-09-25T19:19:16.361Z,1.88
2023-09-25T19:21:45.186Z,1.98
2023-09-25T19:24:13.685Z,1.80
2023-09-25T19:26:42.168Z,2.22
2023-09-25T19:29:10.720Z,1.88
2023-09-25T19:31:43.808Z,2.22
2023-09-25T19:34:13.551Z,2.10
2023-09-25T19:36:43.523Z,2.17
2023-09-25T19:39:12.064Z,2.38
2023-09-25T19:41:40.623Z,2.53
2023-09-25T19:44:09.410Z,2.65
2023-09-25T19:46:38.187Z,2.38
2023-09-25T19:49:06.928Z,2.40
2023-09-25T19:51:39.177Z,2.08
2023-09-25T19:54:09.847Z,2.20
2023-09-25T19:56:38.379Z,2.40
2023-09-25T19:59:06.967Z,2.33
2023-09-25T20:01:35.546Z,2.17
2023-09-25T20:04:04.154Z,2.30
2023-09-25T20:06:32.903Z,2.30
2023-09-25T20:09:02.671Z,2.30
2023-09-25T20:11:32.570Z,2.15
2023-09-25T20:14:01.004Z,2.88
2023-09-25T20:16:29.658Z,2.58
2023-09-25T20:18:58.562Z,2.28
2023-09-25T20:21:27.384Z,2.22
2023-09-25T20:23:56.001Z,2.10
2023-09-25T20:26:24.482Z,2.25
2023-09-25T20:28:54.280Z,2.65
2023-09-25T20:31:22.956Z,2.58
2023-09-25T20:33:51.772Z,2.35
2023-09-25T20:36:20.415Z,2.10
2023-09-25T20:38:48.952Z,2.03
2023-09-25T20:41:17.419Z,2.15
2023-09-25T20:43:46.094Z,2.00
2023-09-25T20:46:16.053Z,2.40
2023-09-25T20:49:03.434Z,2.30
2023-09-25T20:51:50.448Z,2.03
2023-09-25T20:54:18.957Z,1.90
2023-09-25T20:56:47.574Z,2.15
2023-09-25T20:59:16.036Z,2.30
2023-09-25T21:01:45.848Z,2.40
2023-09-25T21:04:14.411Z,2.10
2023-09-25T21:06:44.210Z,2.40
2023-09-25T21:09:13.000Z,2.05
2023-09-25T21:11:41.879Z,2.30
2023-09-25T21:14:10.544Z,2.65
2023-09-25T21:16:39.254Z,1.98
2023-09-25T21:19:09.135Z,2.53
2023-09-25T21:21:37.632Z,2.40
2023-09-25T21:24:06.607Z,2.10
2023-09-25T21:26:35.045Z,2.28
2023-09-25T21:29:03.531Z,2.40
2023-09-25T21:31:32.189Z,2.35
2023-09-25T21:34:00.889Z,2.03
2023-09-25T21:36:30.744Z,2.33
2023-09-25T21:38:59.198Z,2.95
2023-09-25T21:41:27.664Z,2.33
2023-09-25T21:43:56.128Z,2.83
2023-09-25T21:46:24.732Z,2.10
2023-09-25T21:48:53.872Z,2.10
2023-09-25T21:51:22.363Z,2.28
2023-09-25T21:53:52.450Z,2.28
2023-09-25T21:56:21.051Z,2.40
2023-09-25T21:58:49.544Z,2.03
2023-09-25T22:01:18.638Z,2.10
2023-09-25T22:03:47.334Z,1.85
2023-09-25T22:06:15.935Z,2.00
2023-09-25T22:08:44.443Z,2.20
2023-09-25T22:11:14.820Z,2.10
2023-09-25T22:13:43.328Z,2.00
2023-09-25T22:16:11.894Z,1.95
2023-09-25T22:18:40.489Z,1.90
2023-09-25T22:21:13.745Z,2.17
2023-09-25T22:23:42.372Z,1.88
2023-09-25T22:26:11.239Z,2.03
2023-09-25T22:28:42.632Z,2.10
2023-09-25T22:31:15.855Z,2.40
2023-09-25T22:33:45.533Z,1.98
2023-09-25T22:36:14.296Z,2.35
2023-09-25T22:38:43.105Z,1.90
2023-09-25T22:41:11.629Z,1.70
2023-09-25T22:43:43.818Z,1.83
2023-09-25T22:46:12.323Z,2.28
2023-09-25T22:48:40.881Z,1.75
2023-09-25T22:51:09.400Z,1.85
2023-09-25T22:53:37.877Z,2.00
2023-09-25T22:56:07.397Z,1.92
2023-09-25T22:58:35.864Z,2.00
2023-09-25T23:01:05.869Z,1.90
2023-09-25T23:03:34.640Z,1.85
2023-09-25T23:06:03.297Z,2.00
2023-09-25T23:08:32.295Z,2.05
2023-09-25T23:11:00.983Z,1.73
2023-09-25T23:13:30.080Z,2.17
2023-09-25T23:15:58.736Z,1.90
2023-09-25T23:18:29.168Z,1.80
2023-09-25T23:20:57.633Z,1.80
2023-09-25T23:23:26.586Z,1.95
2023-09-25T23:25:55.060Z,2.00
2023-09-25T23:28:23.750Z,1.80
2023-09-25T23:30:52.314Z,2.05
2023-09-25T23:33:21.230Z,2.00
2023-09-25T23:35:51.368Z,2.10
2023-09-25T23:38:19.999Z,1.88
2023-09-25T23:40:50.698Z,2.15
2023-09-25T23:43:19.495Z,1.95
2023-09-25T23:45:47.994Z,2.00
2023-09-25T23:48:16.750Z,1.88
2023-09-25T23:50:45.204Z,1.70
2023-09-25T23:53:15.218Z,1.80
2023-09-25T23:55:44.091Z,2.03
2023-09-25T23:58:12.793Z,1.73
